This is the latest recevied weather packets stored in our database for station/object SP2ARQ-13. If no packets are shown the sender has not sent any weather packets the latest 10 day(s).
| Time | Temp. | Humidity | Pressure | Rain* | Wind** | Luminosity | Snow |
|---|---|---|---|---|---|---|---|
| 1777307243 | 13.89° C | 42% | 1020.5 hPa | - | - | - | - |
| 1777306343 | 14.44° C | 40% | 1020.5 hPa | - | - | - | - |
| 1777305442 | 15° C | 41% | 1020.6 hPa | - | - | - | - |
| 1777304542 | 15° C | 40% | 1020.7 hPa | - | - | - | - |
| 1777303642 | 15.56° C | 39% | 1020.6 hPa | - | - | - | - |
| 1777302742 | 15° C | 41% | 1020.9 hPa | - | - | - | - |
| 1777301842 | 15° C | 41% | 1020.8 hPa | - | - | - | - |
| 1777300942 | 15° C | 41% | 1020.9 hPa | - | - | - | - |
| 1777300041 | 14.44° C | 41% | 1021 hPa | - | - | - | - |
| 1777299140 | 15° C | 40% | 1021.2 hPa | - | - | - | - |
| 1777298240 | 16.11° C | 39% | 1021.1 hPa | - | - | - | - |
| 1777297338 | 16.67° C | 39% | 1021.3 hPa | - | - | - | - |
| 1777296438 | 15.56° C | 39% | 1021.3 hPa | - | - | - | - |
| 1777295538 | 15° C | 40% | 1021.3 hPa | - | - | - | - |
| 1777294638 | 15° C | 40% | 1021.4 hPa | - | - | - | - |
| 1777293738 | 14.44° C | 40% | 1021.5 hPa | - | - | - | - |
| 1777292838 | 15.56° C | 39% | 1021.6 hPa | - | - | - | - |
| 1777291937 | 16.11° C | 37% | 1021.7 hPa | - | - | - | - |
| 1777291037 | 17.22° C | 36% | 1021.6 hPa | - | - | - | - |
| 1777290137 | 16.11° C | 37% | 1021.8 hPa | - | - | - | - |
| 1777289237 | 17.22° C | 37% | 1021.7 hPa | - | - | - | - |
| 1777288337 | 15° C | 38% | 1022.1 hPa | - | - | - | - |
| 1777287437 | 13.33° C | 40% | 1022.1 hPa | - | - | - | - |
| 1777286536 | 13.33° C | 39% | 1022.2 hPa | - | - | - | - |
| 1777285636 | 13.89° C | 39% | 1022.2 hPa | - | - | - | - |
* Rain since midnight (hover to see other rain measurements)
** Current wind speed in m/s (hover to see current wind gust speed)